METAR Reports

Area Airport Weather Conditions

KBDL - Windsor Locks, Connecticut, USA
Distance from station: NE 45mi, 72km
Updated: 8:51PM EST, November 17, 2018
Mostly cloudy
Mostly cloudy
 Wind from NNW
Wind: NNW 6 mph , 9 km/h
Temperature: 41°F , 5°C
Wind Chill: 37°F , 3°C
Dew Point: 27°F , -3°C
Humidity: 57%
Barometer: 30.21 inHg , 1023 hPa
Clouds: Mostly cloudy
Visibility: 10 miles , 16 km
Cloud details: Mostly cloudy 5000 ft
2018/11/18 01:51 KBDL 180151Z 34005KT 10SM BKN050 05/M03 A3021 RMK AO2 SLP232 T00501028
KDXR - Danbury, Connecticut, USA
Distance from station: SSW 15mi, 24km
Updated: 8:53PM EST, November 17, 2018
Overcast
Overcast
 Wind from W
Wind: W 7 mph , 11 km/h
Temperature: 41°F , 5°C
Wind Chill: 36°F , 2°C
Dew Point: 30°F , -1°C
Humidity: 66%
Barometer: 30.23 inHg , 1023.7 hPa
Clouds: Overcast
Visibility: 10 miles , 16 km
Cloud details: Overcast 4500 ft
2018/11/18 01:53 KDXR 180153Z 27006KT 10SM OVC045 05/M01 A3023 RMK AO2 SLP240 T00501011
 
KOXC - Oxford/Waterbury, Connecticut, USA
Distance from station: ESE 16mi, 26km
Updated: 8:51PM EST, November 17, 2018
Overcast
Overcast
 Wind from WNW
Wind: WNW 5 mph , 7 km/h
Temperature: 39°F , 4°C
Wind Chill: 35°F , 2°C
Dew Point: 28°F , -2°C
Humidity: 65%
Barometer: 30.21 inHg , 1023 hPa
Clouds: Overcast
Visibility: 10 miles , 16 km
Cloud details: Overcast 4200 ft
2018/11/18 01:51 KOXC 180151Z 29004KT 10SM OVC042 04/M02 A3021 RMK AO2 SLP249 T00391017
KPOU - Poughkeepsie, New York, USA
Distance from station: W 25mi, 40km
Updated: 8:53PM EST, November 17, 2018
Overcast
Overcast
 Wind from W
Wind: W 12 mph , 19 km/h
Temperature: 41°F , 5°C
Wind Chill: 34°F , 1°C
Dew Point: 28°F , -2°C
Humidity: 61%
Barometer: 30.23 inHg , 1023.7 hPa
Clouds: Overcast
Visibility: 10 miles , 16 km
Cloud details: Overcast 4900 ft
2018/11/18 01:53 KPOU 180153Z 28010KT 10SM OVC049 05/M02 A3023 RMK AO2 SLP234 T00501017
 
KMMK - Meriden, Connecticut, USA
Distance from station: E 30mi, 48km
Updated: 8:53PM EST, November 17, 2018
Overcast
Overcast
 Wind from calm
Wind: Calm
Temperature: 37°F , 3°C
Dew Point: 30°F , -1°C
Humidity: 75%
Barometer: 30.22 inHg , 1023.4 hPa
Clouds: Overcast
Visibility: 10 miles , 16 km
Cloud details: Overcast 4900 ft
2018/11/18 01:53 KMMK 180153Z AUTO 00000KT 10SM OVC049 03/M01 A3022 RMK AO2 SLP233 T00281006 $
KBDR - Bridgeport, Connecticut, USA
Distance from station: SSE 32mi, 51km
Updated: 8:52PM EST, November 17, 2018
Overcast
Overcast
 Wind from W
Wind: W 8 mph , 13 km/h
Temperature: 45°F , 7°C
Wind Chill: 41°F , 5°C
Dew Point: 30°F , -1°C
Humidity: 57%
Barometer: 30.23 inHg , 1023.7 hPa
Clouds: Overcast
Visibility: 10 miles , 16 km
Cloud details: Overcast 4900 ft
2018/11/18 01:52 KBDR 180152Z 26007KT 230V290 10SM OVC049 07/M01 A3023 RMK AO2 SLP236 T00671006
 
KHVN - New Haven/Tweed, Connecticut, USA
Distance from station: SE 35mi, 57km
Updated: 8:53PM EST, November 17, 2018
Overcast
Overcast
 Wind from W
Wind: W 5 mph , 7 km/h
Temperature: 45°F , 7°C
Wind Chill: 42°F , 6°C
Dew Point: 32°F , 0°C
Humidity: 61%
Barometer: 30.22 inHg , 1023.4 hPa
Clouds: Overcast
Visibility: 10 miles , 16 km
Cloud details: Overcast 4900 ft
2018/11/18 01:53 KHVN 180153Z 27004KT 10SM OVC049 07/00 A3022 RMK AO2 SLP233 T00720000
KSWF - Newburgh/Stewart, New York, USA
Distance from station: W 35mi, 57km
Updated: 8:45PM EST, November 17, 2018
Overcast
Overcast
 Wind from WNW
Wind: WNW 9 mph , 15 km/h
Temperature: 39°F , 4°C
Wind Chill: 33°F , 1°C
Dew Point: 32°F , 0°C
Humidity: 75%
Barometer: 30.24 inHg , 1024 hPa
Clouds: Overcast
Visibility: 10 miles , 16 km
Cloud details: Overcast 4500 ft
2018/11/18 01:45 KSWF 180145Z 30008KT 10SM OVC045 04/00 A3024
 
KHPN - White Plains, New York, USA
Distance from station: SSW 38mi, 62km
Updated: 8:56PM EST, November 17, 2018
Mostly cloudy
Mostly cloudy
 Wind from W
Wind: W 5 mph , 7 km/h
Temperature: 41°F , 5°C
Wind Chill: 38°F , 3°C
Dew Point: 30°F , -1°C
Humidity: 66%
Barometer: 30.23 inHg , 1023.7 hPa
Clouds: Mostly cloudy
Visibility: 10 miles , 16 km
Cloud details: Mostly cloudy 4100 ft
2018/11/18 01:56 KHPN 180156Z 26004KT 10SM BKN041 05/M01 A3023 RMK AO2 SLP243 T00501011 $
KHFD - Hartford/Brainar, Connecticut, USA
Distance from station: ENE 41mi, 65km
Updated: 8:53PM EST, November 17, 2018
Overcast
Overcast
 Wind from WNW
Wind: WNW 3 mph , 6 km/h
Temperature: 43°F , 6°C
Dew Point: 28°F , -2°C
Humidity: 57%
Barometer: 30.22 inHg , 1023.4 hPa
Clouds: Overcast
Visibility: 10 miles , 16 km
Cloud details: Overcast 5000 ft
2018/11/18 01:53 KHFD 180153Z 30003KT 10SM OVC050 06/M02 A3022 RMK AO2 SLP232 T00561017